ENAT/ALF METAR and TAF weather

Enter ICAO airport designator
Station Type Date Time Source
ENAT METAR 2018/12/12 22:50 UTC NOAA

ENAT 122250Z 21011KT CAVOK 04/M03 Q1023 RMK WIND 700FT 18013KT


Station Type Date Time Source
ENAT Decoded METAR 2018/12/12 22:50 UTC NOAA

Alta Lufthavn, Norway (ENAT) 69-59N 023-22E 3M
Dec 12, 2018 - 05:50 PM EST / 2018.12.12 2250 UTC
Wind: from the SSW (210 degrees) at 13 MPH (11 KT):0
Visibility: greater than 7 mile(s):0
Temperature: 39 F (4 C)
Dew Point: 26 F (-3 C)
Relative Humidity: 60%
Pressure (altimeter): 30.21 in. Hg (1023 hPa)
ob: ENAT 122250Z 21011KT CAVOK 04/M03 Q1023 RMK WIND 700FT 18013KT
cycle: 23

Station Type Date Time Source
ENAT TAF 2008/11/30 23:00 UTC NOAA

TAF TAF ENAT 302300Z 3023/0102 22005KT 7000 -SN FEW008 BKN020
TEMPO 3023/0102 3000 -SN VV012


Example: see airport list